Time;durP1;ratioP1;P1;durP2;ratioP2;P2;SDS_P1;SDS_P2;PMS_P1;PMS_P2;Temp;Humidity;BMP_temperature;BMP_pressure;BME280_temperature;BME280_humidity;BME280_pressure;Samples;Min_cycle;Max_cycle;Signal;HPM_P1;HPM_P2
2020/12/02 00:01:34;;;;;;;63.23;32.58;;;;;;;-1.20;74.85;101503.53;1719933;81;25764;-80
2020/12/02 00:04:06;;;;;;;61.92;34.60;;;;;;;-1.21;74.90;101507.00;1716684;82;26537;-79
2020/12/02 00:06:34;;;;;;;67.95;35.58;;;;;;;-1.19;74.98;101507.78;1713065;82;26095;-79
2020/12/02 00:09:06;;;;;;;66.12;33.50;;;;;;;-1.18;75.01;101506.42;1713001;82;25917;-79
2020/12/02 00:11:32;;;;;;;62.03;32.50;;;;;;;-1.20;74.97;101504.81;1720534;81;26769;-79
2020/12/02 00:14:03;;;;;;;58.20;31.37;;;;;;;-1.25;74.99;101500.34;1718657;81;25799;-79
2020/12/02 00:16:32;;;;;;;60.05;32.98;;;;;;;-1.26;75.09;101497.38;1705517;82;25731;-79
2020/12/02 00:18:59;;;;;;;62.65;31.48;;;;;;;-1.25;75.11;101503.73;1719699;82;26121;-79
2020/12/02 00:21:30;;;;;;;56.10;33.55;;;;;;;-1.28;75.00;101500.02;1717732;81;25813;-79
2020/12/02 00:23:57;;;;;;;62.93;32.98;;;;;;;-1.34;74.96;101501.52;1719142;82;26178;-80
2020/12/02 00:26:27;;;;;;;60.65;31.45;;;;;;;-1.37;75.01;101502.47;1719872;82;25693;-80
2020/12/02 00:28:54;;;;;;;60.60;34.58;;;;;;;-1.38;75.13;101508.95;1723819;82;25729;-79
2020/12/02 00:31:21;;;;;;;60.17;32.55;;;;;;;-1.41;75.15;101507.34;1723549;81;26687;-79
2020/12/02 00:33:48;;;;;;;64.22;32.33;;;;;;;-1.43;75.20;101502.72;1722359;81;26660;-82
2020/12/02 00:36:15;;;;;;;60.70;30.75;;;;;;;-1.41;75.29;101504.78;1709082;82;25893;-82
2020/12/02 00:38:42;;;;;;;57.38;31.75;;;;;;;-1.41;75.30;101507.80;1722025;82;25876;-82
2020/12/02 00:41:11;;;;;;;60.50;31.02;;;;;;;-1.43;75.26;101510.86;1722554;81;26452;-82
2020/12/02 00:43:38;;;;;;;65.00;34.20;;;;;;;-1.46;75.18;101507.14;1723054;81;25801;-82
2020/12/02 00:46:06;;;;;;;56.40;31.70;;;;;;;-1.48;75.33;101508.91;1725628;81;26422;-82
2020/12/02 00:48:34;;;;;;;63.05;30.65;;;;;;;-1.49;75.37;101510.66;1726272;82;25311;-82
2020/12/02 00:51:05;;;;;;;60.48;32.85;;;;;;;-1.51;75.35;101509.87;1708277;82;25540;-82
2020/12/02 00:53:34;;;;;;;56.48;29.82;;;;;;;-1.50;75.43;101507.71;1725642;81;25854;-82
2020/12/02 00:56:02;;;;;;;57.73;31.75;;;;;;;-1.53;75.40;101510.37;1703488;82;26628;-82
2020/12/02 00:59:04;;;;;;;59.20;31.83;;;;;;;-1.54;75.48;101511.27;1711018;82;26369;-82
2020/12/02 01:01:42;;;;;;;61.95;31.57;;;;;;;-1.58;75.48;101508.45;1721748;81;25913;-80
2020/12/02 01:04:16;;;;;;;56.05;31.25;;;;;;;-1.57;75.54;101507.55;1723723;81;25756;-80
2020/12/02 01:06:46;;;;;;;54.93;29.80;;;;;;;-1.62;75.50;101497.46;1724026;81;25834;-80
2020/12/02 01:09:17;;;;;;;56.53;30.10;;;;;;;-1.63;75.61;101498.37;1724018;82;25815;-80
2020/12/02 01:11:45;;;;;;;59.48;32.30;;;;;;;-1.61;75.66;101499.57;1725642;81;26387;-80
2020/12/02 01:14:16;;;;;;;60.25;33.92;;;;;;;-1.66;75.54;101505.34;1723505;81;25695;-80
2020/12/02 01:16:49;;;;;;;55.00;30.95;;;;;;;-1.67;75.61;101501.92;1724137;82;25788;-80
2020/12/02 01:19:20;;;;;;;55.75;30.02;;;;;;;-1.71;75.65;101508.08;1722641;82;25864;-80
2020/12/02 01:21:55;;;;;;;54.83;30.02;;;;;;;-1.71;75.70;101505.97;1722993;81;25730;-80
2020/12/02 01:24:33;;;;;;;51.95;30.60;;;;;;;-1.70;75.77;101506.34;1723176;82;26331;-80
2020/12/02 01:27:38;;;;;;;55.25;30.60;;;;;;;-1.68;75.83;101509.69;1724766;82;26346;-80
2020/12/02 01:30:08;;;;;;;58.92;31.70;;;;;;;-1.67;75.82;101499.36;1723220;81;25967;-80
2020/12/02 01:32:35;;;;;;;55.03;28.80;;;;;;;-1.69;75.76;101501.59;1708677;82;27053;-80
2020/12/02 01:35:03;;;;;;;59.40;31.20;;;;;;;-1.72;75.76;101503.85;1723791;82;26699;-80
2020/12/02 01:37:37;;;;;;;56.37;30.25;;;;;;;-1.73;75.78;101503.45;1706304;82;25873;-80
2020/12/02 01:40:29;;;;;;;54.05;28.35;;;;;;;-1.75;75.76;101500.55;1725229;81;25708;-80
2020/12/02 01:43:05;;;;;;;54.93;29.82;;;;;;;-1.75;75.79;101501.83;1725820;82;26619;-80
2020/12/02 01:45:45;;;;;;;50.38;28.73;;;;;;;-1.79;75.81;101495.55;1705823;82;25912;-80
2020/12/02 01:48:51;;;;;;;58.90;30.57;;;;;;;-1.81;75.78;101496.49;1721889;82;25895;-80
2020/12/02 01:51:53;;;;;;;55.17;29.23;;;;;;;-1.83;75.81;101492.72;1725586;81;26049;-80
2020/12/02 01:54:24;;;;;;;56.23;30.80;;;;;;;-1.88;75.79;101488.22;1727280;81;25922;-80
2020/12/02 01:57:15;;;;;;;57.88;30.40;;;;;;;-1.95;75.80;101495.73;1717797;82;25792;-80
2020/12/02 02:00:08;;;;;;;51.63;27.98;;;;;;;-1.99;75.85;101493.32;1726059;81;25923;-80
2020/12/02 02:03:21;;;;;;;51.70;29.33;;;;;;;-2.03;75.96;101490.05;1720412;81;25822;-80
2020/12/02 02:06:14;;;;;;;53.33;29.30;;;;;;;-2.06;75.99;101482.03;1717809;82;25687;-80
2020/12/02 02:08:42;;;;;;;54.55;29.77;;;;;;;-2.09;76.01;101483.88;1721086;82;25830;-80
2020/12/02 02:11:14;;;;;;;53.55;29.92;;;;;;;-2.12;76.10;101485.27;1724074;81;26391;-79
2020/12/02 02:13:54;;;;;;;57.30;29.87;;;;;;;-2.17;76.08;101473.91;1727634;81;26431;-80
2020/12/02 02:16:43;;;;;;;60.30;30.72;;;;;;;-2.17;76.10;101470.52;1724661;82;25752;-79
2020/12/02 02:19:19;;;;;;;54.23;28.85;;;;;;;-2.19;76.18;101474.40;1723733;82;25776;-80
2020/12/02 02:21:50;;;;;;;56.35;29.52;;;;;;;-2.20;76.13;101471.46;1722454;81;25867;-80
2020/12/02 02:24:16;;;;;;;54.27;29.50;;;;;;;-2.28;76.11;101473.46;1725255;81;26330;-80
2020/12/02 02:27:11;;;;;;;47.20;27.70;;;;;;;-2.32;76.19;101475.31;1720434;82;25899;-80
2020/12/02 02:29:56;;;;;;;54.40;28.17;;;;;;;-2.34;76.26;101483.93;1722986;81;25743;-80
2020/12/02 02:32:26;;;;;;;52.67;28.75;;;;;;;-2.38;76.38;101482.35;1725302;82;25793;-79
2020/12/02 02:34:56;;;;;;;56.68;29.67;;;;;;;-2.39;76.37;101476.85;1705570;82;25869;-80
2020/12/02 02:37:27;;;;;;;50.52;28.73;;;;;;;-2.38;76.34;101481.08;1726385;82;26493;-79
2020/12/02 02:39:55;;;;;;;49.90;28.17;;;;;;;-2.39;76.40;101479.41;1722473;81;26425;-80
2020/12/02 02:42:38;;;;;;;52.85;28.65;;;;;;;-2.39;76.44;101480.24;1723629;81;25719;-80
2020/12/02 02:45:10;;;;;;;51.08;28.27;;;;;;;-2.37;76.50;101474.63;1723949;81;26259;-81
2020/12/02 02:47:37;;;;;;;52.35;27.42;;;;;;;-2.39;76.50;101468.72;1725306;81;25738;-80
2020/12/02 02:50:08;;;;;;;53.78;27.87;;;;;;;-2.33;76.48;101474.06;1725157;82;25771;-81
2020/12/02 02:52:35;;;;;;;49.98;27.48;;;;;;;-2.35;76.44;101475.39;1722711;81;26927;-80
2020/12/02 02:55:10;;;;;;;47.80;26.68;;;;;;;-2.35;76.39;101477.95;1726623;81;25298;-81
2020/12/02 02:57:43;;;;;;;49.45;27.30;;;;;;;-2.37;76.34;101478.47;1723326;81;25834;-81
2020/12/02 03:00:14;;;;;;;49.25;26.33;;;;;;;-2.39;76.32;101478.96;1722414;81;26532;-79
2020/12/02 03:02:40;;;;;;;49.83;27.13;;;;;;;-2.37;76.42;101473.35;1720331;82;25889;-80
2020/12/02 03:05:26;;;;;;;48.78;27.65;;;;;;;-2.39;76.30;101471.73;1724018;82;25993;-79
2020/12/02 03:08:25;;;;;;;48.00;27.37;;;;;;;-2.41;76.36;101476.89;1725209;82;25882;-80
2020/12/02 03:10:54;;;;;;;48.58;27.27;;;;;;;-2.44;76.32;101472.34;1725541;81;26441;-79
2020/12/02 03:13:41;;;;;;;50.15;27.67;;;;;;;-2.45;76.47;101477.91;1718229;82;26297;-80
2020/12/02 03:16:12;;;;;;;45.45;25.10;;;;;;;-2.43;76.58;101477.39;1723972;81;25807;-79
2020/12/02 03:18:41;;;;;;;49.55;26.55;;;;;;;-2.46;76.49;101480.92;1724307;82;26593;-80
2020/12/02 03:21:12;;;;;;;40.85;24.60;;;;;;;-2.52;76.43;101481.11;1721181;81;25979;-80
2020/12/02 03:23:39;;;;;;;41.70;24.85;;;;;;;-2.57;76.55;101474.48;1726988;81;26281;-80
2020/12/02 03:26:28;;;;;;;41.58;25.05;;;;;;;-2.57;76.65;101478.32;1706240;82;25434;-79
2020/12/02 03:28:54;;;;;;;42.45;24.47;;;;;;;-2.59;76.70;101480.95;1726555;81;25806;-80
2020/12/02 03:31:22;;;;;;;45.75;24.02;;;;;;;-2.59;76.71;101482.23;1723811;81;25658;-80
2020/12/02 03:33:49;;;;;;;43.35;25.50;;;;;;;-2.63;76.64;101479.37;1710018;82;25848;-80
2020/12/02 03:36:18;;;;;;;44.65;23.55;;;;;;;-2.68;76.67;101472.29;1706682;82;25889;-79
2020/12/02 03:38:46;;;;;;;39.63;23.67;;;;;;;-2.66;76.95;101474.36;1725361;82;25756;-79
2020/12/02 03:41:14;;;;;;;41.42;25.32;;;;;;;-2.72;76.75;101472.84;1722142;81;26456;-79
2020/12/02 03:43:40;;;;;;;39.38;23.20;;;;;;;-2.76;76.83;101472.55;1723356;81;26362;-80
2020/12/02 03:46:07;;;;;;;45.78;24.75;;;;;;;-2.74;76.94;101475.89;1725191;82;26353;-80
2020/12/02 03:48:33;;;;;;;37.70;22.60;;;;;;;-2.74;76.91;101477.17;1725351;82;25849;-81
2020/12/02 03:51:00;;;;;;;46.83;25.35;;;;;;;-2.75;76.89;101478.52;1724250;81;25815;-80
2020/12/02 03:53:26;;;;;;;39.08;22.22;;;;;;;-2.77;76.85;101478.56;1724064;81;25792;-80
2020/12/02 03:55:53;;;;;;;46.23;25.50;;;;;;;-2.77;76.87;101477.73;1725153;81;25725;-79
2020/12/02 03:58:19;;;;;;;43.83;25.00;;;;;;;-2.77;76.93;101482.84;1720502;81;25792;-79
2020/12/02 04:00:46;;;;;;;42.53;23.12;;;;;;;-2.73;77.07;101476.72;1722370;81;25730;-79
2020/12/02 04:03:12;;;;;;;42.05;23.07;;;;;;;-2.71;77.13;101473.23;1724166;81;25708;-80
2020/12/02 04:05:39;;;;;;;90.28;46.83;;;;;;;-2.69;77.08;101478.30;1725068;81;25298;-79
2020/12/02 04:11:12;;;;;;;72.42;36.08;;;;;;;-2.60;77.10;101481.81;1722303;81;25741;-80
2020/12/02 04:13:38;;;;;;;74.25;41.25;;;;;;;-2.60;77.04;101477.98;1723093;81;25749;-80
2020/12/02 04:16:05;;;;;;;122.92;66.95;;;;;;;-2.62;77.01;101474.66;1719126;82;25707;-80
2020/12/02 04:18:32;;;;;;;59.75;38.40;;;;;;;-2.60;77.10;101483.09;1717801;81;25830;-80
2020/12/02 04:20:58;;;;;;;67.08;44.05;;;;;;;-2.61;76.96;101478.88;1706596;82;27670;-80
2020/12/02 04:23:25;;;;;;;42.45;27.30;;;;;;;-2.61;76.98;101483.17;1722711;82;25860;-81
2020/12/02 04:25:52;;;;;;;41.15;25.80;;;;;;;-2.65;76.89;101482.86;1720408;82;26505;-81
2020/12/02 04:28:37;;;;;;;42.43;25.60;;;;;;;-2.70;76.96;101483.05;1718837;81;25890;-81
2020/12/02 04:31:21;;;;;;;43.63;25.50;;;;;;;-2.64;77.12;101480.27;1720814;81;26138;-81
2020/12/02 04:33:48;;;;;;;40.33;24.57;;;;;;;-2.56;77.26;101485.95;1718009;81;25994;-81
2020/12/02 04:36:14;;;;;;;40.73;24.65;;;;;;;-2.50;77.17;101484.91;1711979;82;26397;-80
2020/12/02 04:38:41;;;;;;;41.02;24.05;;;;;;;-2.52;77.04;101477.72;1714558;82;25718;-81
2020/12/02 04:41:26;;;;;;;34.95;21.82;;;;;;;-2.52;77.05;101480.28;1719069;81;25442;-81
2020/12/02 04:43:54;;;;;;;39.30;24.35;;;;;;;-2.48;77.05;101483.14;1718690;82;25775;-80
2020/12/02 04:46:26;;;;;;;41.35;23.57;;;;;;;-2.44;76.99;101485.13;1719396;82;26412;-80
2020/12/02 04:48:57;;;;;;;38.45;23.38;;;;;;;-2.45;76.92;101484.31;1719864;81;25737;-80
2020/12/02 04:51:27;;;;;;;36.73;20.82;;;;;;;-2.43;76.91;101480.39;1720309;81;26091;-80
2020/12/02 04:53:57;;;;;;;39.58;23.65;;;;;;;-2.43;76.80;101476.10;1717797;81;26577;-79
2020/12/02 04:56:26;;;;;;;35.95;22.87;;;;;;;-2.49;76.78;101480.17;1717981;81;25690;-79
2020/12/02 04:58:55;;;;;;;37.90;22.35;;;;;;;-2.49;76.74;101476.33;1720782;82;25853;-80
2020/12/02 05:01:33;;;;;;;36.83;23.83;;;;;;;-2.56;76.74;101475.72;1720156;81;26050;-80
2020/12/02 05:04:19;;;;;;;41.37;24.55;;;;;;;-2.57;76.77;101476.59;1707502;81;25949;-79
2020/12/02 05:07:09;;;;;;;38.75;23.77;;;;;;;-2.57;76.82;101471.92;1720256;81;25831;-79
2020/12/02 05:09:53;;;;;;;31.20;20.90;;;;;;;-2.58;76.88;101476.20;1716982;81;25861;-79
2020/12/02 05:12:28;;;;;;;34.73;20.85;;;;;;;-2.57;76.96;101483.44;1717561;81;26691;-79
2020/12/02 05:15:08;;;;;;;38.30;23.45;;;;;;;-2.61;76.89;101478.05;1718206;81;25564;-79
2020/12/02 05:17:35;;;;;;;35.28;21.33;;;;;;;-2.61;76.99;101473.77;1719101;82;25835;-79
2020/12/02 05:20:17;;;;;;;34.15;21.48;;;;;;;-2.54;77.14;101476.93;1717667;81;25787;-79
2020/12/02 05:22:46;;;;;;;44.03;25.32;;;;;;;-2.52;77.10;101472.60;1716640;82;25908;-80
2020/12/02 05:25:29;;;;;;;35.35;22.42;;;;;;;-2.50;77.06;101477.23;1720718;81;25748;-80
2020/12/02 05:28:30;;;;;;;39.95;22.90;;;;;;;-2.47;77.06;101492.02;1714263;82;25677;-80
2020/12/02 05:31:20;;;;;;;37.53;22.67;;;;;;;-2.51;76.88;101478.95;1718402;81;26005;-80
2020/12/02 05:33:47;;;;;;;32.33;21.33;;;;;;;-2.48;77.01;101478.02;1716054;81;25954;-80
2020/12/02 05:36:25;;;;;;;36.42;22.60;;;;;;;-2.46;77.10;101470.68;1715316;81;25634;-80
2020/12/02 05:39:05;;;;;;;32.25;19.95;;;;;;;-2.45;77.02;101470.23;1702904;82;25759;-80
2020/12/02 05:41:34;;;;;;;32.33;20.95;;;;;;;-2.44;76.95;101471.89;1714730;81;26027;-80
2020/12/02 05:44:06;;;;;;;32.83;20.37;;;;;;;-2.42;76.87;101478.25;1720228;82;26047;-80
2020/12/02 05:46:57;;;;;;;37.17;22.87;;;;;;;-2.43;76.77;101477.84;1718609;81;25494;-80
2020/12/02 05:49:52;;;;;;;35.83;23.77;;;;;;;-2.42;76.73;101473.13;1703803;82;25745;-80
2020/12/02 05:52:39;;;;;;;63.23;40.23;;;;;;;-2.46;76.76;101480.92;1720560;81;26634;-80
2020/12/02 05:55:30;;;;;;;43.17;28.45;;;;;;;-2.42;76.90;101482.92;1719437;81;26675;-80
2020/12/02 05:58:08;;;;;;;39.03;24.92;;;;;;;-2.38;77.02;101480.63;1718608;82;25405;-80
2020/12/02 06:00:37;;;;;;;36.93;21.10;;;;;;;-2.30;77.08;101484.20;1719483;81;25978;-79
2020/12/02 06:03:07;;;;;;;31.77;21.62;;;;;;;-2.29;76.86;101478.20;1718007;81;25854;-79
2020/12/02 06:05:34;;;;;;;34.48;23.30;;;;;;;-2.26;76.91;101480.66;1703549;82;26122;-79
2020/12/02 06:08:05;;;;;;;42.05;24.77;;;;;;;-2.21;76.96;101486.45;1704275;82;44348;-80
2020/12/02 06:10:43;;;;;;;34.05;23.30;;;;;;;-2.17;76.85;101488.44;1715926;81;25896;-79
2020/12/02 06:13:21;;;;;;;34.45;23.40;;;;;;;-2.17;76.68;101485.43;1720012;81;25854;-78
2020/12/02 06:15:47;;;;;;;34.98;23.22;;;;;;;-2.15;76.62;101489.23;1706700;82;25783;-80
2020/12/02 06:18:32;;;;;;;34.27;22.02;;;;;;;-2.15;76.60;101489.23;1720551;82;26284;-80
2020/12/02 06:20:59;;;;;;;38.05;22.87;;;;;;;-2.12;76.60;101490.39;1718503;81;25856;-80
2020/12/02 06:23:46;;;;;;;42.53;24.15;;;;;;;-2.10;76.70;101485.61;1719050;82;26475;-80
2020/12/02 06:26:12;;;;;;;37.70;23.55;;;;;;;-2.07;76.57;101492.34;1717640;81;25911;-80
2020/12/02 06:28:46;;;;;;;36.68;23.52;;;;;;;-2.05;76.55;101491.41;1708096;82;25782;-81
2020/12/02 06:31:25;;;;;;;35.15;21.42;;;;;;;-2.04;76.47;101494.80;1719882;81;25925;-79
2020/12/02 06:33:51;;;;;;;36.83;23.12;;;;;;;-2.05;76.47;101498.22;1716741;81;25846;-82
2020/12/02 06:36:29;;;;;;;39.18;24.63;;;;;;;-2.01;76.60;101492.94;1719566;81;25774;-83
2020/12/02 06:39:16;;;;;;;35.95;24.43;;;;;;;-1.96;76.50;101503.48;1713813;82;25879;-83
2020/12/02 06:41:44;;;;;;;34.48;21.65;;;;;;;-1.93;76.49;101499.52;1717926;81;25955;-83
2020/12/02 06:44:17;;;;;;;41.83;26.07;;;;;;;-1.93;76.22;101502.09;1721361;81;25707;-82
2020/12/02 06:47:13;;;;;;;38.25;24.70;;;;;;;-1.98;76.13;101502.70;1716905;81;25781;-82
2020/12/02 06:49:39;;;;;;;34.15;24.32;;;;;;;-1.97;76.21;101506.47;1591071;85;25843;-81
2020/12/02 06:52:10;;;;;;;35.80;22.82;;;;;;;-1.94;76.23;101505.06;1615966;86;25843;-81
2020/12/02 06:54:40;;;;;;;36.75;22.93;;;;;;;-2.00;76.05;101502.73;1583946;88;25846;-82
2020/12/02 06:57:20;;;;;;;35.05;24.92;;;;;;;-2.03;76.14;101499.84;1598277;86;26418;-81
2020/12/02 06:59:56;;;;;;;37.45;23.92;;;;;;;-2.03;76.19;101504.13;1601104;86;26645;-79
2020/12/02 07:02:36;;;;;;;37.25;24.35;;;;;;;-2.00;76.26;101505.30;1596555;87;26262;-79
2020/12/02 07:05:06;;;;;;;38.38;24.18;;;;;;;-1.95;76.36;101508.98;1596040;87;25890;-79
2020/12/02 07:07:33;;;;;;;;;;;;;;;-1.90;76.47;101507.09;1592295;87;26583;-79
2020/12/02 07:09:59;;;;;;;36.85;23.62;;;;;;;-1.86;76.32;101509.91;1596742;87;25668;-79
2020/12/02 07:12:29;;;;;;;36.23;23.55;;;;;;;-1.85;76.36;101498.80;1599092;87;25865;-79
2020/12/02 07:15:01;;;;;;;37.95;24.98;;;;;;;-1.84;76.36;101500.00;1601234;87;25882;-79
2020/12/02 07:17:28;;;;;;;31.48;22.45;;;;;;;-1.82;76.23;101498.67;1598835;87;25910;-79
2020/12/02 07:19:58;;;;;;;36.50;22.85;;;;;;;-1.80;76.10;101500.74;1598980;87;26342;-79
2020/12/02 07:22:30;;;;;;;35.10;21.82;;;;;;;-1.83;75.89;101502.11;1598522;87;27000;-79
2020/12/02 07:25:07;;;;;;;35.58;23.47;;;;;;;-1.85;75.85;101501.36;1609159;83;26887;-79
2020/12/02 07:27:33;;;;;;;35.70;23.85;;;;;;;-1.83;75.87;101508.52;1670691;83;26070;-80
2020/12/02 07:30:04;;;;;;;35.60;24.23;;;;;;;-1.85;75.97;101507.31;1660110;84;25906;-80
2020/12/02 07:32:30;;;;;;;64.77;40.03;;;;;;;-1.82;75.84;101510.20;1677177;83;26371;-80
2020/12/02 07:35:02;;;;;;;40.17;26.52;;;;;;;-1.85;75.68;101505.20;1647090;85;26334;-80
2020/12/02 07:37:28;;;;;;;41.90;25.02;;;;;;;-1.86;75.58;101507.35;1643042;84;25875;-80
2020/12/02 07:40:00;;;;;;;42.65;28.83;;;;;;;-1.91;75.45;101503.70;1676199;83;25777;-80
2020/12/02 07:42:39;;;;;;;50.38;34.48;;;;;;;-1.93;75.49;101513.61;1675072;83;26157;-80
2020/12/02 07:45:17;;;;;;;47.03;33.85;;;;;;;-1.97;75.60;101502.62;1679031;83;25709;-79
2020/12/02 07:47:51;;;;;;;40.55;28.55;;;;;;;-1.94;75.59;101508.91;1676261;83;25904;-79
2020/12/02 07:50:32;;;;;;;37.40;26.27;;;;;;;-1.93;75.59;101506.76;1676042;83;25807;-80
2020/12/02 07:53:21;;;;;;;43.33;28.07;;;;;;;-1.91;75.57;101510.11;1677180;83;25792;-80
2020/12/02 07:55:50;;;;;;;37.80;25.43;;;;;;;-1.90;75.62;101514.78;1621272;86;25913;-80
2020/12/02 07:58:22;;;;;;;40.15;27.05;;;;;;;-2.05;76.42;101477.31;1622349;86;25782;-79
2020/12/02 08:00:48;;;;;;;36.35;24.67;;;;;;;-1.81;75.60;101516.98;1617540;86;26476;-79
2020/12/02 08:03:37;;;;;;;39.23;24.47;;;;;;;-1.78;75.60;101511.75;1621540;86;25857;-80
2020/12/02 08:06:12;;;;;;;37.65;25.05;;;;;;;-1.76;75.65;101512.53;1623012;86;25719;-79
2020/12/02 08:08:37;;;;;;;37.20;25.82;;;;;;;-1.73;75.44;101515.42;1593612;87;25858;-80
2020/12/02 08:11:14;;;;;;;38.77;27.13;;;;;;;-1.74;75.39;101510.75;1591897;86;25837;-80
2020/12/02 08:13:52;;;;;;;33.45;22.90;;;;;;;-1.71;75.36;101507.24;1594693;86;25999;-80
2020/12/02 08:16:35;;;;;;;38.70;25.32;;;;;;;-1.71;75.25;101508.08;1567376;89;25984;-79
2020/12/02 08:19:05;;;;;;;35.65;24.50;;;;;;;-1.72;75.25;101511.54;1584971;88;25912;-79
2020/12/02 08:21:31;;;;;;;36.15;24.50;;;;;;;-1.76;75.18;101504.02;1586448;88;26578;-80
2020/12/02 08:24:21;;;;;;;38.35;23.25;;;;;;;-1.77;75.30;101499.77;1585235;88;25984;-80
2020/12/02 08:26:54;;;;;;;39.05;25.35;;;;;;;-1.65;75.27;101510.39;1609150;87;25896;-79
2020/12/02 08:29:24;;;;;;;44.35;26.52;;;;;;;-1.63;75.06;101509.07;1605358;87;25886;-80
2020/12/02 08:32:32;;;;;;;38.95;26.93;;;;;;;-1.60;75.17;101503.83;1635699;84;25919;-80
2020/12/02 08:34:59;;;;;;;37.63;25.80;;;;;;;-1.55;75.26;101507.50;1645885;83;25594;-79
2020/12/02 08:37:42;;;;;;;34.53;24.87;;;;;;;-1.51;75.01;101509.04;1622381;85;26430;-80
2020/12/02 08:40:29;;;;;;;36.70;24.35;;;;;;;-1.52;74.87;101509.95;1644583;83;26585;-80
2020/12/02 08:43:20;;;;;;;37.25;22.32;;;;;;;-1.52;74.81;101511.23;1646498;83;26854;-80
2020/12/02 08:45:58;;;;;;;39.45;25.57;;;;;;;-1.52;74.75;101509.95;1672974;82;25778;-80
2020/12/02 08:48:24;;;;;;;43.00;26.23;;;;;;;-1.58;74.65;101506.72;1724013;81;25653;-80
2020/12/02 08:50:50;;;;;;;38.73;24.85;;;;;;;-1.57;74.70;101500.69;1724952;81;26539;-80
2020/12/02 08:53:29;;;;;;;41.60;28.05;;;;;;;-1.54;74.76;101500.19;1725486;81;25746;-80
2020/12/02 08:55:57;;;;;;;37.28;24.52;;;;;;;-1.53;74.69;101501.84;1722017;81;25845;-81
2020/12/02 08:58:23;;;;;;;42.00;28.62;;;;;;;-1.50;74.39;101500.02;1705811;82;25871;-80
2020/12/02 09:00:51;;;;;;;45.12;30.82;;;;;;;-1.52;74.35;101502.25;1722286;81;25680;-80
2020/12/02 09:03:24;;;;;;;43.98;29.48;;;;;;;-1.53;74.38;101494.16;1723349;81;26398;-80
2020/12/02 09:05:52;;;;;;;48.50;33.40;;;;;;;-1.52;74.35;101500.97;1724641;81;25662;-80
2020/12/02 09:08:18;;;;;;;39.67;28.42;;;;;;;-1.49;74.55;101497.00;1722542;81;26095;-80
2020/12/02 09:10:45;;;;;;;44.45;30.35;;;;;;;-1.46;74.44;101502.01;1722121;81;26438;-80
2020/12/02 09:13:13;;;;;;;45.00;29.85;;;;;;;-1.43;74.47;101492.91;1726811;81;25539;-80
2020/12/02 09:15:41;;;;;;;43.33;29.82;;;;;;;-1.40;74.50;101486.38;1725451;81;25582;-81
2020/12/02 09:18:08;;;;;;;99.75;63.83;;;;;;;-1.36;74.29;101482.36;1726676;81;26525;-81
2020/12/02 09:20:34;;;;;;;43.25;31.20;;;;;;;-1.38;74.07;101481.58;1726111;81;26497;-81
2020/12/02 09:23:00;;;;;;;52.55;33.25;;;;;;;-1.39;74.20;101482.94;1728740;81;25784;-80
2020/12/02 09:25:27;;;;;;;55.60;35.50;;;;;;;-1.40;74.01;101478.23;1722787;81;26539;-80
2020/12/02 09:27:53;;;;;;;56.50;33.55;;;;;;;-1.42;73.94;101467.23;1719013;81;25639;-81
2020/12/02 09:30:19;;;;;;;53.02;34.63;;;;;;;-1.43;73.95;101469.38;1720888;81;25723;-80
2020/12/02 09:32:46;;;;;;;53.70;36.28;;;;;;;-1.43;73.85;101468.55;1720364;81;26069;-81
2020/12/02 09:35:12;;;;;;;57.45;36.10;;;;;;;-1.43;73.87;101459.58;1719568;81;26360;-80
2020/12/02 09:37:39;;;;;;;59.80;36.73;;;;;;;-1.45;73.87;101459.63;1719014;81;25783;-80
2020/12/02 09:40:11;;;;;;;54.38;36.05;;;;;;;-1.44;73.87;101460.48;1718967;81;26499;-81
2020/12/02 09:43:21;;;;;;;59.45;37.50;;;;;;;-1.41;73.94;101448.38;1719181;81;25887;-80
2020/12/02 09:45:56;;;;;;;59.20;38.53;;;;;;;-1.44;73.56;101447.67;1653570;85;25968;-80
2020/12/02 09:48:23;;;;;;;58.42;39.25;;;;;;;-1.45;73.77;101447.27;1653282;85;26245;-80
2020/12/02 09:50:51;;;;;;;56.28;37.17;;;;;;;-1.44;73.62;101442.09;1652659;85;26015;-81
2020/12/02 09:53:24;;;;;;;58.27;37.50;;;;;;;-1.45;73.58;101444.70;1653522;85;26627;-80
2020/12/02 09:55:51;;;;;;;53.42;34.63;;;;;;;-1.47;73.48;101437.09;1652648;85;25884;-80
2020/12/02 09:58:18;;;;;;;62.75;39.20;;;;;;;-1.51;73.20;101434.70;1652768;85;25915;-81
2020/12/02 10:00:44;;;;;;;62.38;39.13;;;;;;;-1.55;73.41;101431.89;1652126;85;26040;-80
2020/12/02 10:03:39;;;;;;;57.35;35.17;;;;;;;-1.55;73.46;101423.74;1651215;85;25905;-80
2020/12/02 10:06:28;;;;;;;56.60;36.63;;;;;;;-1.53;73.51;101420.64;1652296;85;25869;-80
2020/12/02 10:09:11;;;;;;;58.02;36.93;;;;;;;-1.50;73.42;101423.53;1651192;85;26409;-80
2020/12/02 10:12:13;;;;;;;53.38;34.60;;;;;;;-1.51;73.12;101415.47;1651077;85;25861;-80
2020/12/02 10:15:06;;;;;;;53.10;33.78;;;;;;;-1.54;73.17;101408.73;1651459;85;25911;-80
2020/12/02 10:17:46;;;;;;;62.25;37.58;;;;;;;-1.55;72.98;101410.09;1652672;85;26441;-80
2020/12/02 10:20:42;;;;;;;61.28;40.12;;;;;;;-1.59;73.13;101401.67;1645264;85;26429;-81
2020/12/02 10:23:41;;;;;;;60.60;39.48;;;;;;;-1.55;73.11;101394.72;1697849;81;25935;-81
2020/12/02 10:26:32;;;;;;;57.10;37.90;;;;;;;-1.50;73.25;101397.48;1717871;81;25743;-80
2020/12/02 10:29:03;;;;;;;58.15;39.30;;;;;;;-1.44;73.26;101386.14;1717460;81;25625;-81
2020/12/02 10:31:51;;;;;;;65.03;40.35;;;;;;;-1.41;73.16;101384.27;1715547;81;25930;-81
2020/12/02 10:34:32;;;;;;;55.67;37.28;;;;;;;-1.42;73.05;101384.32;1715362;81;25973;-81
2020/12/02 10:37:16;;;;;;;58.35;37.25;;;;;;;-1.41;73.01;101393.25;1719795;81;25977;-80
2020/12/02 10:39:43;;;;;;;57.98;34.70;;;;;;;-1.39;72.85;101384.23;1715678;81;25978;-80
2020/12/02 10:42:38;;;;;;;59.23;38.80;;;;;;;-1.38;72.78;101389.73;1717103;81;25912;-80
2020/12/02 10:45:17;;;;;;;54.93;36.30;;;;;;;-1.37;72.80;101388.81;1717529;81;25768;-79
2020/12/02 10:48:12;;;;;;;55.38;33.78;;;;;;;-1.35;72.68;101384.47;1716666;81;25855;-80
2020/12/02 10:50:40;;;;;;;62.58;40.03;;;;;;;-1.33;72.56;101378.84;1720293;81;26459;-80
2020/12/02 10:53:14;;;;;;;55.55;39.40;;;;;;;-1.34;72.66;101375.87;1715782;82;26136;-80
2020/12/02 10:55:41;;;;;;;57.48;35.98;;;;;;;-1.29;72.74;101381.64;1719513;82;26495;-80
2020/12/02 10:58:18;;;;;;;59.70;38.75;;;;;;;-1.26;72.73;101377.66;1722033;81;25507;-81
2020/12/02 11:00:43;;;;;;;47.75;32.42;;;;;;;-1.23;72.73;101367.73;1720049;81;25814;-81
2020/12/02 11:03:36;;;;;;;49.10;33.90;;;;;;;-1.17;72.60;101366.21;1719234;81;26416;-80
2020/12/02 11:06:29;;;;;;;51.18;34.03;;;;;;;-1.17;72.32;101364.48;1720874;82;25829;-80
2020/12/02 11:09:26;;;;;;;45.45;31.50;;;;;;;-1.15;72.20;101361.83;1704018;81;25800;-80
2020/12/02 11:12:16;;;;;;;44.08;30.02;;;;;;;-1.16;71.99;101355.87;1715315;82;26280;-80
2020/12/02 11:15:06;;;;;;;44.98;30.37;;;;;;;-1.18;71.39;101354.27;1714185;82;26395;-80
2020/12/02 11:17:47;;;;;;;46.18;29.42;;;;;;;-1.25;71.54;101349.03;1715970;81;26440;-80
2020/12/02 11:20:46;;;;;;;47.85;32.28;;;;;;;-1.32;71.23;101354.84;1717350;82;25803;-80
2020/12/02 11:23:17;;;;;;;44.88;30.50;;;;;;;-1.30;71.56;101350.50;1717673;81;25842;-80
2020/12/02 11:26:04;;;;;;;42.27;28.90;;;;;;;-1.28;71.39;101349.14;1716493;81;26282;-80
2020/12/02 11:28:31;;;;;;;44.23;31.15;;;;;;;-1.31;71.33;101353.97;1702199;81;26073;-80
2020/12/02 11:31:02;;;;;;;43.30;30.12;;;;;;;-1.26;71.47;101349.45;1722942;81;25936;-80
2020/12/02 11:34:03;;;;;;;46.08;30.27;;;;;;;-1.25;71.25;101344.73;1720713;82;26011;-80
2020/12/02 11:36:57;;;;;;;;;;;;;;;-1.23;71.37;101341.66;1723262;81;25843;-80
2020/12/02 11:39:46;;;;;;;44.42;29.67;;;;;;;-1.19;71.43;101335.94;1723805;81;25830;-80
2020/12/02 11:42:38;;;;;;;44.90;31.27;;;;;;;-1.16;71.34;101326.38;1725010;81;25464;-80
2020/12/02 11:45:16;;;;;;;37.83;27.27;;;;;;;-1.09;71.37;101326.10;1722028;81;25913;-80
2020/12/02 11:48:09;;;;;;;39.08;24.70;;;;;;;-1.06;71.21;101325.55;1721526;81;25788;-81
2020/12/02 11:51:05;;;;;;;39.63;25.97;;;;;;;-1.03;71.14;101320.73;1723107;81;25818;-80